Browns Fork, Kentucky
Current Conditions -  °F | °C
As of 12:53 PM on Tuesday 21 Oct 2014 (Local Time) from KJKL Reporting Station
Overcast Overcast  
Wind Chill: 55°   Ceiling: 3400
Heat Index: 55°   Visibility: 10mi
Dew Point: 42°   Wind: 5mph
Humidity: 62%   Direction: NA
Pressure: 30.02"   Gusts: NA
Location:  37.2415°N, 83.2013°W
Report Text: KJKL 211653Z AUTO VRB04KT 10SM FEW027 BKN034 OVC045 13/06 A3002 RMK AO2 SLP161 T01280056
Loading
Personal Weather Stations






























Interactive Weather Map
Tropical Storm Tracking
New forecast layout! Learn more

10-Day Weather Forecast

Advertisements
Track Severe Weather on mobile